< < Back
Terminal Aerodrome Forecast


Current Version              Previous Versions:   1  2  3  4  5  6  7  8  9  

Terminal Aerodrome Forecast

941
FTUS44 KOHX 302300
TAFBNA
TAF
KBNA 302321Z 3100/3124 33005KT P6SM SCT080 BKN250
     FM311200 12005KT P6SM SCT050 BKN100=

Latest METAR

417
SAUS70 KWBC 311500
MTRBNA
METAR KBNA 311453Z VRB04KT 10SM FEW150 SCT200 BKN250 24/16 A3012 RMK AO2
SLP195 T02440161 50006


USA.gov is the U.S. government's official web portal to all federal, state and local government web resources and services.